createdAt,value
2022-09-01T00:00:01.662Z,364.00
2022-09-01T00:00:30.474Z,365.00
2022-09-01T00:01:00.583Z,365.00
2022-09-01T00:01:30.697Z,364.00
2022-09-01T00:02:00.810Z,363.00
2022-09-01T00:02:31.034Z,363.00
2022-09-01T00:03:01.053Z,363.00
2022-09-01T00:03:30.962Z,364.00
2022-09-01T00:04:01.127Z,364.00
2022-09-01T00:04:31.153Z,365.00
2022-09-01T00:05:01.160Z,365.00
2022-09-01T00:05:31.280Z,365.00
2022-09-01T00:06:01.392Z,366.00
2022-09-01T00:06:31.504Z,366.00
2022-09-01T00:07:01.615Z,364.00
2022-09-01T00:07:31.669Z,365.00
2022-09-01T00:08:01.627Z,364.00
2022-09-01T00:08:31.743Z,364.00
2022-09-01T00:09:01.853Z,365.00
2022-09-01T00:09:31.965Z,364.00
2022-09-01T00:10:02.093Z,365.00
2022-09-01T00:10:32.086Z,367.00
2022-09-01T00:11:02.194Z,366.00
2022-09-01T00:11:32.315Z,368.00
2022-09-01T00:12:02.427Z,366.00
2022-09-01T00:12:32.540Z,365.00
2022-09-01T00:13:02.656Z,365.00
2022-09-01T00:13:32.765Z,365.00
2022-09-01T00:14:02.879Z,365.00
2022-09-01T00:14:32.990Z,366.00
2022-09-01T00:15:03.115Z,367.00
2022-09-01T00:15:33.201Z,369.00
2022-09-01T00:16:03.296Z,370.00
2022-09-01T00:16:33.292Z,371.00
2022-09-01T00:17:03.408Z,370.00
2022-09-01T00:17:33.518Z,370.00
2022-09-01T00:18:03.635Z,371.00
2022-09-01T00:18:33.746Z,372.00
2022-09-01T00:19:03.852Z,372.00
2022-09-01T00:19:33.971Z,371.00
2022-09-01T00:20:04.092Z,369.00
2022-09-01T00:20:34.077Z,368.00
2022-09-01T00:21:04.202Z,366.00
2022-09-01T00:21:34.314Z,365.00
2022-09-01T00:22:04.419Z,365.00
2022-09-01T00:22:34.542Z,366.00
2022-09-01T00:23:04.649Z,367.00
2022-09-01T00:23:34.760Z,366.00
2022-09-01T00:24:04.875Z,366.00
2022-09-01T00:24:34.992Z,365.00
2022-09-01T00:25:05.102Z,366.00
2022-09-01T00:25:35.216Z,365.00
2022-09-01T00:26:05.324Z,364.00
2022-09-01T00:26:35.438Z,365.00
2022-09-01T00:27:05.553Z,365.00
2022-09-01T00:27:35.674Z,365.00
2022-09-01T00:28:05.668Z,363.00
2022-09-01T00:28:35.782Z,360.00
2022-09-01T00:29:05.856Z,360.00
2022-09-01T00:29:35.939Z,360.00
2022-09-01T00:30:06.029Z,364.00
2022-09-01T00:30:36.107Z,366.00
2022-09-01T00:31:06.215Z,366.00
2022-09-01T00:31:36.278Z,365.00
2022-09-01T00:32:06.354Z,365.00
2022-09-01T00:32:36.429Z,365.00
2022-09-01T00:33:06.500Z,364.00
2022-09-01T00:33:36.579Z,362.00
2022-09-01T00:34:06.652Z,363.00
2022-09-01T00:34:36.723Z,361.00
2022-09-01T00:35:06.800Z,361.00
2022-09-01T00:35:37.466Z,362.00
2022-09-01T00:36:06.941Z,364.00
2022-09-01T00:36:37.016Z,364.00
2022-09-01T00:37:07.083Z,366.00
2022-09-01T00:37:37.166Z,365.00
2022-09-01T00:38:07.235Z,364.00
2022-09-01T00:38:37.309Z,363.00
2022-09-01T00:39:07.414Z,363.00
2022-09-01T00:39:37.529Z,364.00
2022-09-01T00:40:07.717Z,363.00
2022-09-01T00:40:37.744Z,362.00
2022-09-01T00:41:07.718Z,363.00
2022-09-01T00:41:37.828Z,361.00
2022-09-01T00:42:07.941Z,358.00
2022-09-01T00:42:38.054Z,358.00
2022-09-01T00:43:08.170Z,357.00
2022-09-01T00:43:38.285Z,360.00
2022-09-01T00:44:08.395Z,361.00
2022-09-01T00:44:39.304Z,362.00
2022-09-01T00:45:08.602Z,361.00
2022-09-01T00:45:38.601Z,362.00
2022-09-01T00:46:09.063Z,362.00
2022-09-01T00:46:40.284Z,361.00
2022-09-01T00:47:08.837Z,362.00
2022-09-01T00:47:38.935Z,362.00
2022-09-01T00:48:09.042Z,362.00
2022-09-01T00:48:39.119Z,363.00
2022-09-01T00:49:09.228Z,363.00
2022-09-01T00:49:39.342Z,364.00
2022-09-01T00:50:09.453Z,364.00
2022-09-01T00:50:39.564Z,366.00
2022-09-01T00:51:09.675Z,368.00
2022-09-01T00:51:39.794Z,367.00
2022-09-01T00:52:09.899Z,366.00
2022-09-01T00:52:40.011Z,365.00
2022-09-01T00:53:10.125Z,363.00
2022-09-01T00:53:40.230Z,358.00
2022-09-01T00:54:10.349Z,356.00
2022-09-01T00:54:40.469Z,356.00
2022-09-01T00:55:10.577Z,358.00
2022-09-01T00:55:40.692Z,358.00
2022-09-01T00:56:10.803Z,358.00
2022-09-01T00:56:40.919Z,359.00
2022-09-01T00:57:10.930Z,359.00
2022-09-01T00:57:41.039Z,359.00
2022-09-01T00:58:19.745Z,358.00
2022-09-01T00:58:41.161Z,359.00
2022-09-01T00:59:11.271Z,358.00
2022-09-01T00:59:41.390Z,358.00
2022-09-01T01:00:11.542Z,358.00
2022-09-01T01:00:41.876Z,359.00
2022-09-01T01:01:11.738Z,360.00
2022-09-01T01:01:41.797Z,361.00
2022-09-01T01:02:11.800Z,360.00
2022-09-01T01:02:41.854Z,359.00
2022-09-01T01:03:11.863Z,358.00
2022-09-01T01:03:41.975Z,359.00
2022-09-01T01:04:12.084Z,359.00
2022-09-01T01:04:42.206Z,360.00
2022-09-01T01:05:15.143Z,359.00
2022-09-01T01:05:42.330Z,360.00
2022-09-01T01:06:12.444Z,361.00
2022-09-01T01:06:42.555Z,362.00
2022-09-01T01:07:12.666Z,361.00
2022-09-01T01:07:42.780Z,360.00
2022-09-01T01:08:12.897Z,360.00
2022-09-01T01:08:42.880Z,360.00
2022-09-01T01:09:12.994Z,359.00
2022-09-01T01:09:43.119Z,360.00
2022-09-01T01:10:13.106Z,359.00
2022-09-01T01:10:43.218Z,359.00
2022-09-01T01:11:13.333Z,357.00
2022-09-01T01:11:43.449Z,357.00
2022-09-01T01:12:13.558Z,357.00
2022-09-01T01:12:43.675Z,357.00
2022-09-01T01:13:13.788Z,359.00
2022-09-01T01:13:43.805Z,361.00
2022-09-01T01:14:13.916Z,360.00
2022-09-01T01:14:45.969Z,359.00
2022-09-01T01:15:14.108Z,360.00
2022-09-01T01:15:44.105Z,359.00
2022-09-01T01:16:14.257Z,360.00
2022-09-01T01:16:44.284Z,360.00
2022-09-01T01:17:14.253Z,359.00
2022-09-01T01:17:44.366Z,359.00
2022-09-01T01:18:14.475Z,361.00
2022-09-01T01:18:44.560Z,361.00
2022-09-01T01:19:14.674Z,364.00
2022-09-01T01:19:44.793Z,365.00
2022-09-01T01:20:14.909Z,363.00
2022-09-01T01:20:45.017Z,365.00
2022-09-01T01:21:15.010Z,365.00
2022-09-01T01:21:45.125Z,363.00
2022-09-01T01:22:15.121Z,363.00
2022-09-01T01:22:45.234Z,363.00
2022-09-01T01:23:15.231Z,363.00
2022-09-01T01:23:45.337Z,364.00
2022-09-01T01:24:15.330Z,363.00
2022-09-01T01:24:45.445Z,364.00
2022-09-01T01:25:15.558Z,363.00
2022-09-01T01:25:45.669Z,362.00
2022-09-01T01:26:15.778Z,363.00
2022-09-01T01:26:45.888Z,363.00
2022-09-01T01:27:16.002Z,361.00
2022-09-01T01:27:46.114Z,360.00
2022-09-01T01:28:16.238Z,361.00
2022-09-01T01:28:46.326Z,361.00
2022-09-01T01:29:16.409Z,359.00
2022-09-01T01:29:46.502Z,357.00
2022-09-01T01:30:16.590Z,356.00
2022-09-01T01:30:46.700Z,359.00
2022-09-01T01:31:16.836Z,360.00
2022-09-01T01:31:46.869Z,362.00
2022-09-01T01:32:16.941Z,362.00
2022-09-01T01:32:47.014Z,363.00
2022-09-01T01:33:17.093Z,362.00
2022-09-01T01:33:47.166Z,363.00
2022-09-01T01:34:17.234Z,365.00
2022-09-01T01:34:48.745Z,364.00
2022-09-01T01:35:17.309Z,363.00
2022-09-01T01:35:47.381Z,362.00
2022-09-01T01:36:17.457Z,363.00
2022-09-01T01:36:47.528Z,361.00
2022-09-01T01:37:17.606Z,362.00
2022-09-01T01:37:47.682Z,361.00
2022-09-01T01:38:17.749Z,360.00
2022-09-01T01:38:47.834Z,361.00
2022-09-01T01:39:17.952Z,361.00
2022-09-01T01:39:48.061Z,360.00
2022-09-01T01:40:18.264Z,359.00
2022-09-01T01:40:48.287Z,358.00
2022-09-01T01:41:18.275Z,357.00
2022-09-01T01:41:48.390Z,359.00
2022-09-01T01:42:18.502Z,357.00
2022-09-01T01:42:48.614Z,357.00
2022-09-01T01:43:18.726Z,358.00
2022-09-01T01:43:48.835Z,358.00
2022-09-01T01:44:18.950Z,355.00
2022-09-01T01:44:49.057Z,357.00
2022-09-01T01:45:19.171Z,360.00
2022-09-01T01:45:49.246Z,361.00
2022-09-01T01:46:19.743Z,358.00
2022-09-01T01:46:49.315Z,358.00
2022-09-01T01:47:19.430Z,357.00
2022-09-01T01:47:49.539Z,357.00
2022-09-01T01:48:19.793Z,357.00
2022-09-01T01:48:49.720Z,358.00
2022-09-01T01:49:19.837Z,358.00
2022-09-01T01:49:49.950Z,361.00
2022-09-01T01:50:20.057Z,358.00
2022-09-01T01:50:50.171Z,357.00
2022-09-01T01:51:20.283Z,357.00
2022-09-01T01:51:50.389Z,356.00
2022-09-01T01:52:20.505Z,355.00
2022-09-01T01:52:58.435Z,355.00
2022-09-01T01:53:20.528Z,356.00
2022-09-01T01:53:50.639Z,356.00
2022-09-01T01:54:20.751Z,356.00
2022-09-01T01:54:50.867Z,356.00
2022-09-01T01:55:20.982Z,356.00
2022-09-01T01:55:51.084Z,355.00
2022-09-01T01:56:21.202Z,356.00
2022-09-01T01:56:51.314Z,355.00
2022-09-01T01:57:21.427Z,355.00
2022-09-01T01:57:51.543Z,354.00
2022-09-01T01:58:21.829Z,355.00
2022-09-01T01:58:51.762Z,356.00
2022-09-01T01:59:21.769Z,357.00
2022-09-01T01:59:51.759Z,356.00
2022-09-01T02:00:28.375Z,356.00
2022-09-01T02:00:51.866Z,356.00
2022-09-01T02:01:22.057Z,355.00
2022-09-01T02:01:52.087Z,357.00
2022-09-01T02:02:22.092Z,356.00
2022-09-01T02:02:52.116Z,357.00
2022-09-01T02:03:22.152Z,356.00
2022-09-01T02:03:52.271Z,355.00
2022-09-01T02:04:22.252Z,356.00
2022-09-01T02:04:52.359Z,356.00
2022-09-01T02:05:22.474Z,358.00
2022-09-01T02:05:52.587Z,358.00
2022-09-01T02:06:22.695Z,360.00
2022-09-01T02:06:52.807Z,358.00
2022-09-01T02:07:22.918Z,359.00
2022-09-01T02:07:53.028Z,361.00
2022-09-01T02:08:23.139Z,361.00
2022-09-01T02:08:53.255Z,363.00
2022-09-01T02:09:23.450Z,363.00
2022-09-01T02:09:53.424Z,358.00
2022-09-01T02:10:23.468Z,358.00
2022-09-01T02:10:53.584Z,356.00
2022-09-01T02:11:23.698Z,358.00
2022-09-01T02:11:53.803Z,360.00
2022-09-01T02:12:23.916Z,358.00
2022-09-01T02:12:54.025Z,359.00
2022-09-01T02:13:24.134Z,359.00
2022-09-01T02:13:54.213Z,358.00
2022-09-01T02:14:24.324Z,359.00
2022-09-01T02:14:54.435Z,358.00
2022-09-01T02:15:24.578Z,357.00
2022-09-01T02:15:54.566Z,358.00
2022-09-01T02:16:24.581Z,358.00
2022-09-01T02:16:54.726Z,358.00
2022-09-01T02:17:24.701Z,358.00
2022-09-01T02:17:54.811Z,359.00
2022-09-01T02:18:24.922Z,357.00
2022-09-01T02:18:55.034Z,357.00
2022-09-01T02:19:25.149Z,355.00
2022-09-01T02:19:55.256Z,354.00
2022-09-01T02:20:25.380Z,353.00
2022-09-01T02:20:55.487Z,355.00
2022-09-01T02:21:25.596Z,355.00
2022-09-01T02:21:55.707Z,354.00
2022-09-01T02:22:25.823Z,356.00
2022-09-01T02:22:55.933Z,356.00
2022-09-01T02:23:26.047Z,355.00
2022-09-01T02:23:56.162Z,352.00
2022-09-01T02:24:26.274Z,351.00
2022-09-01T02:24:56.386Z,351.00
2022-09-01T02:25:26.500Z,352.00
2022-09-01T02:26:15.734Z,353.00
2022-09-01T02:26:26.626Z,354.00
2022-09-01T02:26:56.731Z,354.00
2022-09-01T02:27:26.847Z,355.00
2022-09-01T02:27:56.962Z,356.00
2022-09-01T02:28:27.079Z,356.00
2022-09-01T02:28:57.183Z,356.00
2022-09-01T02:29:27.243Z,356.00
2022-09-01T02:29:57.319Z,357.00
2022-09-01T02:30:27.422Z,359.00
2022-09-01T02:30:57.574Z,359.00
2022-09-01T02:31:27.517Z,361.00
2022-09-01T02:31:57.590Z,362.00
2022-09-01T02:32:27.659Z,363.00
2022-09-01T02:32:57.737Z,363.00
2022-09-01T02:33:27.818Z,361.00
2022-09-01T02:33:57.890Z,360.00
2022-09-01T02:34:27.965Z,358.00
2022-09-01T02:34:58.035Z,357.00
2022-09-01T02:35:28.110Z,357.00
2022-09-01T02:35:58.195Z,357.00
2022-09-01T02:36:28.270Z,357.00
2022-09-01T02:36:58.343Z,359.00
2022-09-01T02:37:28.415Z,358.00
2022-09-01T02:37:58.487Z,358.00
2022-09-01T02:38:28.562Z,359.00
2022-09-01T02:38:58.650Z,359.00
2022-09-01T02:39:28.767Z,359.00
2022-09-01T02:39:58.890Z,360.00
2022-09-01T02:40:28.922Z,361.00
2022-09-01T02:40:58.891Z,363.00
2022-09-01T02:41:29.004Z,361.00
2022-09-01T02:41:59.112Z,360.00
2022-09-01T02:42:29.222Z,359.00
2022-09-01T02:42:59.327Z,359.00
2022-09-01T02:43:29.442Z,358.00
2022-09-01T02:43:59.550Z,358.00
2022-09-01T02:44:29.661Z,358.00
2022-09-01T02:44:59.775Z,358.00
2022-09-01T02:45:29.893Z,357.00
2022-09-01T02:45:59.964Z,355.00
2022-09-01T02:46:29.916Z,355.00
2022-09-01T02:47:00.019Z,356.00
2022-09-01T02:47:30.127Z,355.00
2022-09-01T02:48:00.238Z,357.00
2022-09-01T02:48:30.347Z,356.00
2022-09-01T02:49:00.559Z,356.00
2022-09-01T02:49:30.514Z,355.00
2022-09-01T02:50:00.619Z,356.00
2022-09-01T02:50:30.730Z,356.00
2022-09-01T02:51:00.851Z,355.00
2022-09-01T02:51:30.844Z,355.00
2022-09-01T02:52:00.951Z,355.00
2022-09-01T02:52:31.063Z,357.00
2022-09-01T02:53:03.960Z,356.00
2022-09-01T02:53:31.252Z,355.00
2022-09-01T02:54:01.365Z,355.00
2022-09-01T02:54:31.483Z,355.00
2022-09-01T02:55:01.593Z,355.00
2022-09-01T02:55:31.711Z,356.00
2022-09-01T02:56:01.819Z,358.00
2022-09-01T02:56:31.930Z,358.00
2022-09-01T02:57:02.042Z,359.00
2022-09-01T02:57:32.165Z,359.00
2022-09-01T02:58:02.274Z,358.00
2022-09-01T02:58:32.355Z,357.00
2022-09-01T02:59:02.417Z,356.00
2022-09-01T02:59:32.533Z,355.00
2022-09-01T03:00:02.641Z,355.00
2022-09-01T03:00:32.749Z,355.00
2022-09-01T03:01:02.927Z,354.00
2022-09-01T03:01:33.068Z,357.00
2022-09-01T03:02:03.034Z,356.00
2022-09-01T03:02:33.150Z,355.00
2022-09-01T03:03:03.260Z,354.00
2022-09-01T03:03:33.350Z,354.00
2022-09-01T03:04:03.462Z,352.00
2022-09-01T03:04:33.633Z,353.00
2022-09-01T03:05:03.642Z,354.00
2022-09-01T03:05:33.616Z,354.00
2022-09-01T03:06:03.740Z,355.00
2022-09-01T03:06:33.727Z,356.00
2022-09-01T03:07:03.837Z,356.00
2022-09-01T03:07:33.951Z,357.00
2022-09-01T03:08:04.064Z,359.00
2022-09-01T03:08:34.175Z,358.00
2022-09-01T03:09:04.309Z,358.00
2022-09-01T03:09:34.297Z,358.00
2022-09-01T03:10:04.411Z,358.00
2022-09-01T03:10:34.524Z,355.00
2022-09-01T03:11:04.633Z,355.00
2022-09-01T03:11:34.748Z,355.00
2022-09-01T03:12:04.863Z,355.00
2022-09-01T03:12:34.969Z,355.00
2022-09-01T03:13:05.079Z,353.00
2022-09-01T03:13:35.189Z,351.00
2022-09-01T03:14:05.307Z,352.00
2022-09-01T03:14:35.421Z,353.00
2022-09-01T03:15:05.528Z,354.00
2022-09-01T03:15:35.562Z,351.00
2022-09-01T03:16:05.959Z,354.00
2022-09-01T03:16:35.793Z,354.00
2022-09-01T03:17:05.809Z,353.00
2022-09-01T03:17:35.920Z,353.00
2022-09-01T03:18:06.025Z,353.00
2022-09-01T03:18:36.139Z,352.00
2022-09-01T03:19:06.251Z,355.00
2022-09-01T03:19:36.372Z,355.00
2022-09-01T03:20:06.359Z,356.00
2022-09-01T03:20:36.472Z,356.00
2022-09-01T03:21:06.600Z,355.00
2022-09-01T03:21:36.585Z,355.00
2022-09-01T03:22:06.694Z,355.00
2022-09-01T03:22:36.814Z,354.00
2022-09-01T03:23:06.918Z,354.00
2022-09-01T03:23:37.033Z,356.00
2022-09-01T03:24:07.145Z,356.00
2022-09-01T03:24:37.250Z,354.00
2022-09-01T03:25:07.362Z,355.00
2022-09-01T03:25:37.477Z,357.00
2022-09-01T03:26:07.584Z,358.00
2022-09-01T03:26:37.701Z,358.00
2022-09-01T03:27:07.812Z,358.00
2022-09-01T03:27:37.921Z,358.00
2022-09-01T03:28:08.046Z,356.00
2022-09-01T03:28:38.146Z,354.00
2022-09-01T03:29:08.224Z,352.00
2022-09-01T03:29:38.299Z,351.00
2022-09-01T03:30:08.374Z,352.00
2022-09-01T03:30:38.454Z,351.00
2022-09-01T03:31:08.534Z,349.00
2022-09-01T03:31:38.645Z,350.00
2022-09-01T03:32:08.758Z,353.00
2022-09-01T03:32:38.834Z,353.00
2022-09-01T03:33:08.910Z,353.00
2022-09-01T03:33:38.980Z,354.00
2022-09-01T03:34:09.046Z,355.00
2022-09-01T03:34:39.124Z,354.00
2022-09-01T03:35:09.197Z,353.00
2022-09-01T03:35:39.272Z,355.00
2022-09-01T03:36:15.173Z,355.00
2022-09-01T03:36:39.455Z,355.00
2022-09-01T03:37:09.530Z,355.00
2022-09-01T03:37:39.598Z,353.00
2022-09-01T03:38:09.698Z,352.00
2022-09-01T03:38:39.697Z,354.00
2022-09-01T03:39:13.338Z,353.00
2022-09-01T03:39:39.816Z,352.00
2022-09-01T03:40:09.985Z,352.00
2022-09-01T03:40:40.159Z,353.00
2022-09-01T03:41:10.049Z,354.00
2022-09-01T03:41:40.154Z,355.00
2022-09-01T03:42:10.265Z,356.00
2022-09-01T03:42:40.381Z,357.00
2022-09-01T03:43:10.512Z,357.00
2022-09-01T03:43:46.837Z,358.00
2022-09-01T03:44:10.511Z,358.00
2022-09-01T03:44:40.609Z,358.00
2022-09-01T03:45:10.723Z,359.00
2022-09-01T03:45:40.883Z,358.00
2022-09-01T03:46:10.965Z,357.00
2022-09-01T03:46:40.940Z,357.00
2022-09-01T03:47:11.050Z,357.00
2022-09-01T03:47:41.160Z,357.00
2022-09-01T03:48:11.293Z,359.00
2022-09-01T03:48:41.275Z,358.00
2022-09-01T03:49:11.388Z,355.00
2022-09-01T03:49:41.498Z,368.00
2022-09-01T03:50:11.609Z,366.00
2022-09-01T03:50:41.722Z,358.00
2022-09-01T03:51:11.831Z,358.00
2022-09-01T03:51:41.944Z,357.00
2022-09-01T03:52:12.059Z,355.00
2022-09-01T03:52:42.172Z,354.00
2022-09-01T03:53:12.174Z,355.00
2022-09-01T03:53:42.160Z,354.00
2022-09-01T03:54:12.271Z,354.00
2022-09-01T03:54:42.390Z,359.00
2022-09-01T03:55:12.500Z,360.00
2022-09-01T03:55:42.615Z,361.00
2022-09-01T03:56:12.736Z,366.00
2022-09-01T03:56:42.848Z,368.00
2022-09-01T03:57:13.953Z,374.00
2022-09-01T03:57:43.034Z,379.00
2022-09-01T03:58:13.147Z,383.00
2022-09-01T03:58:43.261Z,393.00
2022-09-01T03:59:13.376Z,421.00
2022-09-01T03:59:43.488Z,419.00
2022-09-01T04:00:13.600Z,415.00
2022-09-01T04:00:48.776Z,419.00
2022-09-01T04:01:14.043Z,433.00
2022-09-01T04:01:43.861Z,435.00
2022-09-01T04:02:13.863Z,473.00
2022-09-01T04:02:43.843Z,466.00
2022-09-01T04:03:14.187Z,466.00
2022-09-01T04:03:43.920Z,462.00
2022-09-01T04:04:14.126Z,456.00
2022-09-01T04:04:44.100Z,453.00
2022-09-01T04:05:14.217Z,449.00
2022-09-01T04:05:44.325Z,446.00
2022-09-01T04:06:14.450Z,447.00
2022-09-01T04:06:44.439Z,441.00
2022-09-01T04:07:19.082Z,438.00
2022-09-01T04:07:44.538Z,437.00
2022-09-01T04:08:14.658Z,435.00
2022-09-01T04:08:44.641Z,431.00
2022-09-01T04:09:14.751Z,425.00
2022-09-01T04:09:44.857Z,422.00
2022-09-01T04:10:14.970Z,418.00
2022-09-01T04:10:45.077Z,416.00
2022-09-01T04:11:15.192Z,415.00
2022-09-01T04:11:46.132Z,415.00
2022-09-01T04:12:15.422Z,414.00
2022-09-01T04:12:45.536Z,412.00
2022-09-01T04:13:15.651Z,411.00
2022-09-01T04:13:45.701Z,412.00
2022-09-01T04:14:15.839Z,412.00
2022-09-01T04:14:45.807Z,411.00
2022-09-01T04:15:15.921Z,415.00
2022-09-01T04:15:46.034Z,416.00
2022-09-01T04:16:16.204Z,418.00
2022-09-01T04:16:46.252Z,419.00
2022-09-01T04:17:16.226Z,420.00
2022-09-01T04:17:46.337Z,423.00
2022-09-01T04:18:16.497Z,426.00
2022-09-01T04:18:46.477Z,425.00
2022-09-01T04:19:16.593Z,425.00
2022-09-01T04:19:46.706Z,426.00
2022-09-01T04:20:16.823Z,429.00
2022-09-01T04:20:46.933Z,430.00
2022-09-01T04:21:17.350Z,430.00
2022-09-01T04:21:47.090Z,430.00
2022-09-01T04:22:17.208Z,431.00
2022-09-01T04:22:47.326Z,431.00
2022-09-01T04:23:17.435Z,430.00
2022-09-01T04:23:47.547Z,430.00
2022-09-01T04:24:17.659Z,429.00
2022-09-01T04:24:47.774Z,428.00
2022-09-01T04:25:17.894Z,431.00
2022-09-01T04:25:47.999Z,429.00
2022-09-01T04:26:18.154Z,422.00
2022-09-01T04:26:48.142Z,384.00
2022-09-01T04:27:18.467Z,390.00
2022-09-01T04:27:48.352Z,386.00
2022-09-01T04:28:18.579Z,383.00
2022-09-01T04:28:48.529Z,383.00
2022-09-01T04:29:57.924Z,394.00
2022-09-01T04:30:27.611Z,398.00
2022-09-01T04:30:57.720Z,375.00
2022-09-01T04:31:28.011Z,372.00
2022-09-01T04:31:57.862Z,373.00
2022-09-01T04:32:27.940Z,369.00
2022-09-01T04:32:58.014Z,369.00
2022-09-01T04:33:28.093Z,365.00
2022-09-01T04:33:58.174Z,363.00
2022-09-01T04:34:28.254Z,361.00
2022-09-01T04:34:58.321Z,362.00
2022-09-01T04:35:28.396Z,361.00
2022-09-01T04:35:58.474Z,359.00
2022-09-01T04:36:28.584Z,358.00
2022-09-01T04:36:58.660Z,362.00
2022-09-01T04:37:28.765Z,354.00
2022-09-01T04:37:58.843Z,357.00
2022-09-01T04:38:28.924Z,354.00
2022-09-01T04:38:59.001Z,352.00
2022-09-01T04:39:29.070Z,347.00
2022-09-01T04:39:59.187Z,345.00
2022-09-01T04:40:29.364Z,346.00
2022-09-01T04:40:59.347Z,347.00
2022-09-01T04:41:29.457Z,348.00
2022-09-01T04:41:59.573Z,349.00
2022-09-01T04:42:29.922Z,353.00
2022-09-01T04:42:59.803Z,353.00
2022-09-01T04:43:29.912Z,356.00
2022-09-01T04:44:00.030Z,359.00
2022-09-01T04:44:30.141Z,359.00
2022-09-01T04:45:02.094Z,359.00
2022-09-01T04:45:30.389Z,357.00
2022-09-01T04:46:00.490Z,357.00
2022-09-01T04:46:30.407Z,357.00
2022-09-01T04:47:00.570Z,356.00
2022-09-01T04:47:36.218Z,356.00
2022-09-01T04:48:00.611Z,354.00
2022-09-01T04:48:30.591Z,352.00
2022-09-01T04:49:00.734Z,355.00
2022-09-01T04:49:30.734Z,356.00
2022-09-01T04:50:00.733Z,354.00
2022-09-01T04:50:30.729Z,357.00
2022-09-01T04:51:00.725Z,357.00
2022-09-01T04:51:30.742Z,359.00
2022-09-01T04:52:00.854Z,359.00
2022-09-01T04:52:30.935Z,358.00
2022-09-01T04:53:00.939Z,360.00
2022-09-01T04:53:31.041Z,360.00
2022-09-01T04:54:01.096Z,358.00
2022-09-01T04:54:31.083Z,358.00
2022-09-01T04:55:01.206Z,359.00
2022-09-01T04:55:31.210Z,361.00
2022-09-01T04:56:01.200Z,360.00
2022-09-01T04:56:31.314Z,356.00
2022-09-01T04:57:01.428Z,355.00
2022-09-01T04:57:31.657Z,357.00
2022-09-01T04:58:01.649Z,359.00
2022-09-01T04:58:31.761Z,356.00
2022-09-01T04:59:01.874Z,356.00
2022-09-01T04:59:31.997Z,354.00
2022-09-01T05:00:01.991Z,355.00
2022-09-01T05:00:32.222Z,358.00
2022-09-01T05:01:02.297Z,361.00
2022-09-01T05:01:32.177Z,362.00
2022-09-01T05:02:02.238Z,358.00
2022-09-01T05:02:32.358Z,356.00
2022-09-01T05:03:02.339Z,353.00
2022-09-01T05:03:32.335Z,355.00
2022-09-01T05:04:04.004Z,354.00
2022-09-01T05:04:32.402Z,353.00
2022-09-01T05:05:02.515Z,355.00
2022-09-01T05:05:32.625Z,357.00
2022-09-01T05:06:02.748Z,358.00
2022-09-01T05:06:32.874Z,357.00
2022-09-01T05:07:02.871Z,357.00
2022-09-01T05:07:32.871Z,356.00
2022-09-01T05:08:02.997Z,357.00
2022-09-01T05:08:32.993Z,356.00
2022-09-01T05:09:03.121Z,357.00
2022-09-01T05:09:33.114Z,356.00
2022-09-01T05:10:03.236Z,354.00
2022-09-01T05:10:33.224Z,354.00
2022-09-01T05:11:03.338Z,353.00
2022-09-01T05:11:33.559Z,353.00
2022-09-01T05:12:03.554Z,354.00
2022-09-01T05:12:33.580Z,351.00
2022-09-01T05:13:03.613Z,354.00
2022-09-01T05:13:33.637Z,351.00
2022-09-01T05:14:03.748Z,349.00
2022-09-01T05:14:33.865Z,344.00
2022-09-01T05:15:03.982Z,341.00
2022-09-01T05:15:34.099Z,333.00
2022-09-01T05:16:04.452Z,334.00
2022-09-01T05:16:34.528Z,336.00
2022-09-01T05:17:04.398Z,343.00
2022-09-01T05:17:34.392Z,341.00
2022-09-01T05:18:04.504Z,344.00
2022-09-01T05:18:34.627Z,345.00
2022-09-01T05:19:04.739Z,345.00
2022-09-01T05:19:34.855Z,345.00
2022-09-01T05:20:04.967Z,347.00
2022-09-01T05:20:35.082Z,347.00
2022-09-01T05:21:05.194Z,348.00
2022-09-01T05:21:35.306Z,350.00
2022-09-01T05:22:05.435Z,348.00
2022-09-01T05:22:35.428Z,347.00
2022-09-01T05:23:05.419Z,346.00
2022-09-01T05:23:35.535Z,347.00
2022-09-01T05:24:05.647Z,346.00
2022-09-01T05:24:41.227Z,347.00
2022-09-01T05:25:05.772Z,348.00
2022-09-01T05:25:35.885Z,346.00
2022-09-01T05:26:05.998Z,347.00
2022-09-01T05:26:36.116Z,345.00
2022-09-01T05:27:06.229Z,345.00
2022-09-01T05:27:36.346Z,361.00
2022-09-01T05:28:06.348Z,359.00
2022-09-01T05:28:36.458Z,361.00
2022-09-01T05:29:06.573Z,359.00
2022-09-01T05:29:36.676Z,357.00
2022-09-01T05:30:06.794Z,355.00
2022-09-01T05:30:36.792Z,351.00
2022-09-01T05:31:06.889Z,351.00
2022-09-01T05:31:36.990Z,352.00
2022-09-01T05:32:07.037Z,353.00
2022-09-01T05:32:37.121Z,353.00
2022-09-01T05:33:07.201Z,353.00
2022-09-01T05:33:37.273Z,357.00
2022-09-01T05:34:07.349Z,377.00
2022-09-01T05:34:37.425Z,365.00
2022-09-01T05:35:07.500Z,362.00
2022-09-01T05:35:37.574Z,360.00
2022-09-01T05:36:07.657Z,359.00
2022-09-01T05:36:37.743Z,359.00
2022-09-01T05:37:07.826Z,361.00
2022-09-01T05:37:37.903Z,360.00
2022-09-01T05:38:07.983Z,361.00
2022-09-01T05:38:38.061Z,359.00
2022-09-01T05:39:08.140Z,358.00
2022-09-01T05:39:38.253Z,358.00
2022-09-01T05:40:08.356Z,358.00
2022-09-01T05:40:38.476Z,357.00
2022-09-01T05:41:08.464Z,357.00
2022-09-01T05:41:38.576Z,354.00
2022-09-01T05:42:08.686Z,353.00
2022-09-01T05:42:38.801Z,352.00
2022-09-01T05:43:08.909Z,350.00
2022-09-01T05:43:39.022Z,350.00
2022-09-01T05:44:09.045Z,347.00
2022-09-01T05:44:39.167Z,349.00
2022-09-01T05:45:09.154Z,349.00
2022-09-01T05:45:56.479Z,349.00
2022-09-01T05:46:09.284Z,349.00
2022-09-01T05:46:39.472Z,351.00
2022-09-01T05:47:09.469Z,351.00
2022-09-01T05:47:39.583Z,350.00
2022-09-01T05:48:09.700Z,351.00
2022-09-01T05:48:39.921Z,351.00
2022-09-01T05:49:09.816Z,350.00
2022-09-01T05:49:39.927Z,350.00
2022-09-01T05:50:14.333Z,349.00
2022-09-01T05:50:39.959Z,349.00
2022-09-01T05:51:27.445Z,350.00
2022-09-01T05:51:46.350Z,351.00
2022-09-01T05:52:10.138Z,350.00
2022-09-01T05:52:40.136Z,348.00
2022-09-01T05:53:12.849Z,349.00
2022-09-01T05:53:40.281Z,347.00
2022-09-01T05:54:10.302Z,347.00
2022-09-01T05:54:40.385Z,345.00
2022-09-01T05:55:10.516Z,345.00
2022-09-01T05:55:40.546Z,346.00
2022-09-01T05:56:10.584Z,347.00
2022-09-01T05:56:43.536Z,348.00
2022-09-01T05:57:32.723Z,348.00
2022-09-01T05:57:40.656Z,348.00
2022-09-01T05:58:10.768Z,348.00
2022-09-01T05:59:26.549Z,350.00
2022-09-01T05:59:40.905Z,349.00
2022-09-01T06:00:11.279Z,347.00
2022-09-01T06:00:41.044Z,341.00
2022-09-01T06:01:11.173Z,342.00
2022-09-01T06:01:41.377Z,345.00
2022-09-01T06:02:11.281Z,348.00
2022-09-01T06:02:41.316Z,351.00
2022-09-01T06:03:11.356Z,352.00
2022-09-01T06:03:41.203Z,350.00
2022-09-01T06:04:11.312Z,349.00
2022-09-01T06:04:41.444Z,347.00
2022-09-01T06:05:11.437Z,344.00
2022-09-01T06:05:41.541Z,344.00
2022-09-01T06:06:11.658Z,347.00
2022-09-01T06:07:01.817Z,346.00
2022-09-01T06:07:14.671Z,345.00
2022-09-01T06:07:41.808Z,344.00
2022-09-01T06:08:11.844Z,345.00
2022-09-01T06:08:46.719Z,343.00
2022-09-01T06:09:11.953Z,342.00
2022-09-01T06:09:42.071Z,342.00
2022-09-01T06:10:12.183Z,343.00
2022-09-01T06:10:42.298Z,343.00
2022-09-01T06:11:12.420Z,343.00
2022-09-01T06:11:42.529Z,344.00
2022-09-01T06:12:12.569Z,343.00
2022-09-01T06:12:42.682Z,345.00
2022-09-01T06:13:12.791Z,347.00
2022-09-01T06:13:42.791Z,347.00
2022-09-01T06:14:12.907Z,348.00
2022-09-01T06:14:43.022Z,346.00
2022-09-01T06:15:13.137Z,347.00
2022-09-01T06:15:43.151Z,347.00
2022-09-01T06:16:13.327Z,347.00